sensor_id;sensor_type;location;lat;lon;timestamp;pressure;altitude;pressure_sealevel;temperature;humidity
2563;BME280;1291;51.420;6.970;2023-05-23T00:00:03;100097.94;;;33.44;nan
2563;BME280;1291;51.420;6.970;2023-05-23T00:02:28;100097.59;;;33.76;nan
2563;BME280;1291;51.420;6.970;2023-05-23T00:04:54;100110.47;;;33.04;nan
2563;BME280;1291;51.420;6.970;2023-05-23T00:07:22;100106.47;;;34.17;nan
2563;BME280;1291;51.420;6.970;2023-05-23T00:09:48;100086.78;;;34.90;nan
2563;BME280;1291;51.420;6.970;2023-05-23T00:12:19;100101.41;;;34.75;nan
2563;BME280;1291;51.420;6.970;2023-05-23T00:14:45;100101.56;;;32.04;nan
2563;BME280;1291;51.420;6.970;2023-05-23T00:17:13;100099.59;;;34.62;nan
2563;BME280;1291;51.420;6.970;2023-05-23T00:19:38;100106.97;;;33.43;nan
2563;BME280;1291;51.420;6.970;2023-05-23T00:22:03;100115.84;;;32.77;nan
2563;BME280;1291;51.420;6.970;2023-05-23T00:24:29;100110.44;;;34.24;nan
2563;BME280;1291;51.420;6.970;2023-05-23T00:26:54;100110.47;;;33.04;nan
2563;BME280;1291;51.420;6.970;2023-05-23T00:29:20;100102.44;;;34.85;nan
2563;BME280;1291;51.420;6.970;2023-05-23T00:31:45;100116.13;;;34.06;nan
2563;BME280;1291;51.420;6.970;2023-05-23T00:34:15;100111.28;;;34.50;nan
2563;BME280;1291;51.420;6.970;2023-05-23T00:36:45;100118.75;;;34.21;nan
2563;BME280;1291;51.420;6.970;2023-05-23T00:39:14;100125.06;;;31.24;nan
2563;BME280;1291;51.420;6.970;2023-05-23T00:41:49;100116.19;;;35.30;nan
2563;BME280;1291;51.420;6.970;2023-05-23T00:44:18;100129.00;;;33.23;nan
2563;BME280;1291;51.420;6.970;2023-05-23T00:46:46;100122.56;;;33.78;nan
2563;BME280;1291;51.420;6.970;2023-05-23T00:49:13;100124.94;;;33.70;nan
2563;BME280;1291;51.420;6.970;2023-05-23T00:51:42;100120.97;;;32.94;nan
2563;BME280;1291;51.420;6.970;2023-05-23T00:54:08;100132.97;;;33.30;nan
2563;BME280;1291;51.420;6.970;2023-05-23T00:56:34;100123.28;;;35.20;nan
2563;BME280;1291;51.420;6.970;2023-05-23T00:59:00;100125.84;;;34.09;nan
2563;BME280;1291;51.420;6.970;2023-05-23T01:01:25;100132.03;;;33.71;nan
2563;BME280;1291;51.420;6.970;2023-05-23T01:03:51;100128.97;;;34.16;nan
2563;BME280;1291;51.420;6.970;2023-05-23T01:06:17;100131.22;;;33.16;nan
2563;BME280;1291;51.420;6.970;2023-05-23T01:08:42;100134.25;;;34.30;nan
2563;BME280;1291;51.420;6.970;2023-05-23T01:11:23;100129.28;;;34.11;nan
2563;BME280;1291;51.420;6.970;2023-05-23T01:14:14;100129.13;;;32.93;nan
2563;BME280;1291;51.420;6.970;2023-05-23T01:16:48;100120.16;;;34.26;nan
2563;BME280;1291;51.420;6.970;2023-05-23T01:19:38;100125.66;;;34.25;nan
2563;BME280;1291;51.420;6.970;2023-05-23T01:24:56;100132.69;;;33.75;nan
2563;BME280;1291;51.420;6.970;2023-05-23T01:27:44;100132.69;;;35.38;nan
2563;BME280;1291;51.420;6.970;2023-05-23T01:30:16;100128.75;;;34.94;nan
2563;BME280;1291;51.420;6.970;2023-05-23T01:32:43;100130.38;;;34.21;nan
2563;BME280;1291;51.420;6.970;2023-05-23T01:35:13;100125.16;;;34.57;nan
2563;BME280;1291;51.420;6.970;2023-05-23T01:37:44;100136.16;;;35.03;nan
2563;BME280;1291;51.420;6.970;2023-05-23T01:40:10;100127.25;;;34.90;nan
2563;BME280;1291;51.420;6.970;2023-05-23T01:42:36;100136.09;;;34.92;nan
2563;BME280;1291;51.420;6.970;2023-05-23T01:45:01;100133.88;;;33.31;nan
2563;BME280;1291;51.420;6.970;2023-05-23T01:47:27;100136.19;;;35.63;nan
2563;BME280;1291;51.420;6.970;2023-05-23T01:49:54;100127.94;;;35.89;nan
2563;BME280;1291;51.420;6.970;2023-05-23T01:52:24;100139.75;;;31.79;nan
2563;BME280;1291;51.420;6.970;2023-05-23T01:54:50;100131.88;;;33.20;nan
2563;BME280;1291;51.420;6.970;2023-05-23T01:57:18;100127.25;;;35.62;nan
2563;BME280;1291;51.420;6.970;2023-05-23T01:59:44;100134.31;;;35.17;nan
2563;BME280;1291;51.420;6.970;2023-05-23T02:02:15;100137.81;;;34.31;nan
2563;BME280;1291;51.420;6.970;2023-05-23T02:04:41;100140.19;;;34.22;nan
2563;BME280;1291;51.420;6.970;2023-05-23T02:07:06;100137.50;;;34.85;nan
2563;BME280;1291;51.420;6.970;2023-05-23T02:09:34;100145.22;;;33.88;nan
2563;BME280;1291;51.420;6.970;2023-05-23T02:11:59;100146.38;;;33.84;nan
2563;BME280;1291;51.420;6.970;2023-05-23T02:14:25;100148.09;;;33.45;nan
2563;BME280;1291;51.420;6.970;2023-05-23T02:16:52;100143.91;;;33.94;nan
2563;BME280;1291;51.420;6.970;2023-05-23T02:19:18;100143.81;;;33.96;nan
2563;BME280;1291;51.420;6.970;2023-05-23T02:21:43;100140.06;;;33.85;nan
2563;BME280;1291;51.420;6.970;2023-05-23T02:24:08;100145.69;;;34.46;nan
2563;BME280;1291;51.420;6.970;2023-05-23T02:26:34;100150.84;;;31.43;nan
2563;BME280;1291;51.420;6.970;2023-05-23T02:28:59;100145.84;;;33.79;nan
2563;BME280;1291;51.420;6.970;2023-05-23T02:31:25;100144.44;;;33.74;nan
2563;BME280;1291;51.420;6.970;2023-05-23T02:33:51;100151.69;;;34.76;nan
2563;BME280;1291;51.420;6.970;2023-05-23T02:36:17;100146.09;;;35.03;nan
2563;BME280;1291;51.420;6.970;2023-05-23T02:38:43;100150.47;;;32.96;nan
2563;BME280;1291;51.420;6.970;2023-05-23T02:41:08;100162.88;;;32.84;nan
2563;BME280;1291;51.420;6.970;2023-05-23T02:43:33;100161.69;;;33.17;nan
2563;BME280;1291;51.420;6.970;2023-05-23T02:45:59;100151.25;;;35.19;nan
2563;BME280;1291;51.420;6.970;2023-05-23T02:48:24;100162.88;;;32.12;nan
2563;BME280;1291;51.420;6.970;2023-05-23T02:50:50;100159.38;;;33.65;nan
2563;BME280;1291;51.420;6.970;2023-05-23T02:53:15;100168.97;;;33.00;nan
2563;BME280;1291;51.420;6.970;2023-05-23T02:55:40;100166.38;;;32.57;nan
2563;BME280;1291;51.420;6.970;2023-05-23T02:58:07;100162.88;;;32.84;nan
2563;BME280;1291;51.420;6.970;2023-05-23T03:00:36;100165.25;;;34.61;nan
2563;BME280;1291;51.420;6.970;2023-05-23T03:03:02;100161.91;;;33.54;nan
2563;BME280;1291;51.420;6.970;2023-05-23T03:05:27;100161.66;;;34.37;nan
2563;BME280;1291;51.420;6.970;2023-05-23T03:07:52;100171.31;;;32.92;nan
2563;BME280;1291;51.420;6.970;2023-05-23T03:10:18;100170.53;;;33.19;nan
2563;BME280;1291;51.420;6.970;2023-05-23T03:12:45;100183.09;;;34.38;nan
2563;BME280;1291;51.420;6.970;2023-05-23T03:15:10;100177.63;;;33.74;nan
2563;BME280;1291;51.420;6.970;2023-05-23T03:17:35;100169.25;;;34.04;nan
2563;BME280;1291;51.420;6.970;2023-05-23T03:20:01;100171.47;;;34.25;nan
2563;BME280;1291;51.420;6.970;2023-05-23T03:22:27;100171.41;;;33.99;nan
2563;BME280;1291;51.420;6.970;2023-05-23T03:24:52;100175.03;;;34.38;nan
2563;BME280;1291;51.420;6.970;2023-05-23T03:27:18;100182.47;;;32.43;nan
2563;BME280;1291;51.420;6.970;2023-05-23T03:29:43;100170.66;;;32.88;nan
2563;BME280;1291;51.420;6.970;2023-05-23T03:32:09;100174.69;;;34.17;nan
2563;BME280;1291;51.420;6.970;2023-05-23T03:34:34;100177.56;;;31.90;nan
2563;BME280;1291;51.420;6.970;2023-05-23T03:37:00;100192.19;;;32.74;nan
2563;BME280;1291;51.420;6.970;2023-05-23T03:39:26;100188.03;;;32.25;nan
2563;BME280;1291;51.420;6.970;2023-05-23T03:41:51;100186.06;;;31.37;nan
2563;BME280;1291;51.420;6.970;2023-05-23T03:44:16;100186.63;;;34.13;nan
2563;BME280;1291;51.420;6.970;2023-05-23T03:46:41;100191.31;;;32.88;nan
2563;BME280;1291;51.420;6.970;2023-05-23T03:49:07;100195.63;;;31.72;nan
2563;BME280;1291;51.420;6.970;2023-05-23T03:51:35;100193.91;;;32.89;nan
2563;BME280;1291;51.420;6.970;2023-05-23T03:54:03;100198.59;;;32.86;nan
2563;BME280;1291;51.420;6.970;2023-05-23T03:56:29;100204.91;;;32.13;nan
2563;BME280;1291;51.420;6.970;2023-05-23T03:58:54;100207.72;;;33.94;nan
2563;BME280;1291;51.420;6.970;2023-05-23T04:01:19;100211.31;;;34.07;nan
2563;BME280;1291;51.420;6.970;2023-05-23T04:03:45;100215.88;;;31.78;nan
2563;BME280;1291;51.420;6.970;2023-05-23T04:06:13;100217.22;;;33.03;nan
2563;BME280;1291;51.420;6.970;2023-05-23T04:08:38;100215.13;;;32.80;nan
2563;BME280;1291;51.420;6.970;2023-05-23T04:11:06;100221.97;;;32.85;nan
2563;BME280;1291;51.420;6.970;2023-05-23T04:13:32;100219.09;;;33.30;nan
2563;BME280;1291;51.420;6.970;2023-05-23T04:15:59;100211.88;;;33.58;nan
2563;BME280;1291;51.420;6.970;2023-05-23T04:18:25;100215.94;;;34.05;nan
2563;BME280;1291;51.420;6.970;2023-05-23T04:20:51;100224.47;;;33.30;nan
2563;BME280;1291;51.420;6.970;2023-05-23T04:23:16;100226.50;;;33.68;nan
2563;BME280;1291;51.420;6.970;2023-05-23T04:25:41;100217.84;;;35.79;nan
2563;BME280;1291;51.420;6.970;2023-05-23T04:28:07;100224.84;;;31.93;nan
2563;BME280;1291;51.420;6.970;2023-05-23T04:30:34;100220.28;;;34.20;nan
2563;BME280;1291;51.420;6.970;2023-05-23T04:33:00;100228.03;;;33.85;nan
2563;BME280;1291;51.420;6.970;2023-05-23T04:35:25;100225.72;;;34.72;nan
2563;BME280;1291;51.420;6.970;2023-05-23T04:37:53;100236.53;;;33.79;nan
2563;BME280;1291;51.420;6.970;2023-05-23T04:40:24;100228.94;;;33.85;nan
2563;BME280;1291;51.420;6.970;2023-05-23T04:42:49;100228.97;;;33.71;nan
2563;BME280;1291;51.420;6.970;2023-05-23T04:45:16;100220.81;;;35.88;nan
2563;BME280;1291;51.420;6.970;2023-05-23T04:47:42;100224.38;;;33.59;nan
2563;BME280;1291;51.420;6.970;2023-05-23T04:50:09;100228.34;;;34.20;nan
2563;BME280;1291;51.420;6.970;2023-05-23T04:52:34;100230.22;;;34.33;nan
2563;BME280;1291;51.420;6.970;2023-05-23T04:55:00;100235.28;;;34.89;nan
2563;BME280;1291;51.420;6.970;2023-05-23T04:57:25;100241.63;;;33.15;nan
2563;BME280;1291;51.420;6.970;2023-05-23T04:59:51;100238.56;;;33.48;nan
2563;BME280;1291;51.420;6.970;2023-05-23T05:02:17;100235.97;;;33.19;nan
2563;BME280;1291;51.420;6.970;2023-05-23T05:04:42;100236.75;;;32.64;nan
2563;BME280;1291;51.420;6.970;2023-05-23T05:07:08;100249.22;;;32.94;nan
2563;BME280;1291;51.420;6.970;2023-05-23T05:09:33;100248.06;;;32.98;nan
2563;BME280;1291;51.420;6.970;2023-05-23T05:11:58;100255.47;;;31.75;nan
2563;BME280;1291;51.420;6.970;2023-05-23T05:14:25;100239.59;;;34.53;nan
2563;BME280;1291;51.420;6.970;2023-05-23T05:16:53;100251.97;;;33.06;nan
2563;BME280;1291;51.420;6.970;2023-05-23T05:19:21;100249.91;;;32.68;nan
2563;BME280;1291;51.420;6.970;2023-05-23T05:21:47;100256.41;;;32.05;nan
2563;BME280;1291;51.420;6.970;2023-05-23T05:24:12;100260.03;;;33.35;nan
2563;BME280;1291;51.420;6.970;2023-05-23T05:26:37;100256.53;;;33.47;nan
2563;BME280;1291;51.420;6.970;2023-05-23T05:29:03;100266.91;;;31.78;nan
2563;BME280;1291;51.420;6.970;2023-05-23T05:31:31;100267.44;;;33.03;nan
2563;BME280;1291;51.420;6.970;2023-05-23T05:33:57;100273.03;;;32.26;nan
2563;BME280;1291;51.420;6.970;2023-05-23T05:36:22;100280.84;;;32.45;nan
2563;BME280;1291;51.420;6.970;2023-05-23T05:38:48;100279.41;;;33.13;nan
2563;BME280;1291;51.420;6.970;2023-05-23T05:41:13;100280.34;;;33.54;nan
2563;BME280;1291;51.420;6.970;2023-05-23T05:43:38;100283.00;;;33.26;nan
2563;BME280;1291;51.420;6.970;2023-05-23T05:46:04;100287.56;;;33.67;nan
2563;BME280;1291;51.420;6.970;2023-05-23T05:48:29;100278.53;;;33.13;nan
2563;BME280;1291;51.420;6.970;2023-05-23T05:50:54;100287.44;;;33.27;nan
2563;BME280;1291;51.420;6.970;2023-05-23T05:53:20;100294.06;;;32.79;nan
2563;BME280;1291;51.420;6.970;2023-05-23T05:55:45;100292.00;;;33.54;nan
2563;BME280;1291;51.420;6.970;2023-05-23T05:58:10;100296.66;;;32.36;nan
2563;BME280;1291;51.420;6.970;2023-05-23T06:00:36;100289.84;;;32.60;nan
2563;BME280;1291;51.420;6.970;2023-05-23T06:03:09;100288.09;;;32.59;nan
2563;BME280;1291;51.420;6.970;2023-05-23T06:05:35;100293.69;;;32.70;nan
2563;BME280;1291;51.420;6.970;2023-05-23T06:08:02;100295.22;;;34.01;nan
2563;BME280;1291;51.420;6.970;2023-05-23T06:10:27;100295.13;;;33.34;nan
2563;BME280;1291;51.420;6.970;2023-05-23T06:12:52;100288.94;;;33.87;nan
2563;BME280;1291;51.420;6.970;2023-05-23T06:15:18;100289.31;;;32.54;nan
2563;BME280;1291;51.420;6.970;2023-05-23T06:17:43;100292.00;;;33.54;nan
2563;BME280;1291;51.420;6.970;2023-05-23T06:20:09;100303.41;;;33.16;nan
2563;BME280;1291;51.420;6.970;2023-05-23T06:22:35;100295.44;;;33.15;nan
2563;BME280;1291;51.420;6.970;2023-05-23T06:25:00;100297.56;;;32.20;nan
2563;BME280;1291;51.420;6.970;2023-05-23T06:27:26;100290.03;;;32.86;nan
2563;BME280;1291;51.420;6.970;2023-05-23T06:29:51;100297.09;;;31.98;nan
2563;BME280;1291;51.420;6.970;2023-05-23T06:32:16;100303.97;;;32.93;nan
2563;BME280;1291;51.420;6.970;2023-05-23T06:34:42;100307.81;;;31.18;nan
2563;BME280;1291;51.420;6.970;2023-05-23T06:37:07;100296.38;;;32.99;nan
2563;BME280;1291;51.420;6.970;2023-05-23T06:39:32;100307.91;;;33.30;nan
2563;BME280;1291;51.420;6.970;2023-05-23T06:41:58;100308.50;;;34.44;nan
2563;BME280;1291;51.420;6.970;2023-05-23T06:44:23;100313.00;;;32.92;nan
2563;BME280;1291;51.420;6.970;2023-05-23T06:46:48;100310.16;;;32.20;nan
2563;BME280;1291;51.420;6.970;2023-05-23T06:49:14;100322.69;;;32.35;nan
2563;BME280;1291;51.420;6.970;2023-05-23T06:51:39;100325.00;;;33.00;nan
2563;BME280;1291;51.420;6.970;2023-05-23T06:54:05;100328.84;;;32.07;nan
2563;BME280;1291;51.420;6.970;2023-05-23T06:56:30;100327.59;;;33.45;nan
2563;BME280;1291;51.420;6.970;2023-05-23T06:58:56;100330.69;;;30.92;nan
2563;BME280;1291;51.420;6.970;2023-05-23T07:01:21;100329.56;;;32.69;nan
2563;BME280;1291;51.420;6.970;2023-05-23T07:03:47;100328.75;;;32.39;nan
2563;BME280;1291;51.420;6.970;2023-05-23T07:06:12;100333.41;;;31.73;nan
2563;BME280;1291;51.420;6.970;2023-05-23T07:08:37;100332.72;;;32.01;nan
2563;BME280;1291;51.420;6.970;2023-05-23T07:11:03;100336.44;;;33.04;nan
2563;BME280;1291;51.420;6.970;2023-05-23T07:13:30;100338.31;;;32.12;nan
2563;BME280;1291;51.420;6.970;2023-05-23T07:15:56;100336.78;;;31.61;nan
2563;BME280;1291;51.420;6.970;2023-05-23T07:18:22;100350.41;;;31.89;nan
2563;BME280;1291;51.420;6.970;2023-05-23T07:20:47;100345.97;;;33.24;nan
2563;BME280;1291;51.420;6.970;2023-05-23T07:23:13;100351.16;;;33.13;nan
2563;BME280;1291;51.420;6.970;2023-05-23T07:25:38;100362.16;;;31.22;nan
2563;BME280;1291;51.420;6.970;2023-05-23T07:28:04;100359.38;;;32.20;nan
2563;BME280;1291;51.420;6.970;2023-05-23T07:30:30;100364.91;;;31.69;nan
2563;BME280;1291;51.420;6.970;2023-05-23T07:32:55;100366.41;;;32.53;nan
2563;BME280;1291;51.420;6.970;2023-05-23T07:35:21;100364.59;;;32.07;nan
2563;BME280;1291;51.420;6.970;2023-05-23T07:37:53;100374.91;;;31.34;nan
2563;BME280;1291;51.420;6.970;2023-05-23T07:40:18;100369.97;;;31.91;nan
2563;BME280;1291;51.420;6.970;2023-05-23T07:42:44;100382.72;;;30.70;nan
2563;BME280;1291;51.420;6.970;2023-05-23T07:45:10;100382.41;;;30.59;nan
2563;BME280;1291;51.420;6.970;2023-05-23T07:47:35;100381.75;;;31.40;nan
2563;BME280;1291;51.420;6.970;2023-05-23T07:50:00;100381.34;;;32.43;nan
2563;BME280;1291;51.420;6.970;2023-05-23T07:52:29;100384.56;;;32.80;nan
2563;BME280;1291;51.420;6.970;2023-05-23T07:54:56;100391.69;;;33.81;nan
2563;BME280;1291;51.420;6.970;2023-05-23T07:57:21;100384.19;;;33.58;nan
2563;BME280;1291;51.420;6.970;2023-05-23T07:59:49;100404.00;;;31.75;nan
2563;BME280;1291;51.420;6.970;2023-05-23T08:02:19;100396.66;;;32.10;nan
2563;BME280;1291;51.420;6.970;2023-05-23T08:04:45;100399.03;;;31.51;nan
2563;BME280;1291;51.420;6.970;2023-05-23T08:07:10;100395.78;;;32.10;nan
2563;BME280;1291;51.420;6.970;2023-05-23T08:09:37;100395.16;;;32.37;nan
2563;BME280;1291;51.420;6.970;2023-05-23T08:12:04;100414.56;;;31.11;nan
2563;BME280;1291;51.420;6.970;2023-05-23T08:14:30;100410.34;;;31.41;nan
2563;BME280;1291;51.420;6.970;2023-05-23T08:16:55;100408.84;;;31.68;nan
2563;BME280;1291;51.420;6.970;2023-05-23T08:19:20;100417.69;;;31.86;nan
2563;BME280;1291;51.420;6.970;2023-05-23T08:21:45;100434.97;;;30.44;nan
2563;BME280;1291;51.420;6.970;2023-05-23T08:24:11;100423.22;;;31.83;nan
2563;BME280;1291;51.420;6.970;2023-05-23T08:26:37;100430.16;;;31.87;nan
2563;BME280;1291;51.420;6.970;2023-05-23T08:29:02;100429.75;;;30.22;nan
2563;BME280;1291;51.420;6.970;2023-05-23T08:31:28;100441.34;;;30.96;nan
2563;BME280;1291;51.420;6.970;2023-05-23T08:33:54;100432.59;;;30.55;nan
2563;BME280;1291;51.420;6.970;2023-05-23T08:36:19;100441.03;;;30.48;nan
2563;BME280;1291;51.420;6.970;2023-05-23T08:38:45;100443.59;;;30.86;nan
2563;BME280;1291;51.420;6.970;2023-05-23T08:41:33;100435.84;;;31.81;nan
2563;BME280;1291;51.420;6.970;2023-05-23T08:43:59;100438.03;;;30.37;nan
2563;BME280;1291;51.420;6.970;2023-05-23T08:46:25;100436.84;;;31.96;nan
2563;BME280;1291;51.420;6.970;2023-05-23T08:48:52;100441.84;;;31.70;nan
2563;BME280;1291;51.420;6.970;2023-05-23T08:51:21;100440.06;;;32.35;nan
2563;BME280;1291;51.420;6.970;2023-05-23T08:53:47;100441.63;;;32.23;nan
2563;BME280;1291;51.420;6.970;2023-05-23T08:56:12;100453.56;;;31.85;nan
2563;BME280;1291;51.420;6.970;2023-05-23T08:58:38;100447.69;;;32.42;nan
2563;BME280;1291;51.420;6.970;2023-05-23T09:01:08;100458.41;;;31.28;nan
2563;BME280;1291;51.420;6.970;2023-05-23T09:03:35;100470.72;;;30.24;nan
2563;BME280;1291;51.420;6.970;2023-05-23T09:06:08;100471.63;;;30.61;nan
2563;BME280;1291;51.420;6.970;2023-05-23T09:08:34;100473.06;;;30.32;nan
2563;BME280;1291;51.420;6.970;2023-05-23T09:11:01;100479.22;;;29.56;nan
2563;BME280;1291;51.420;6.970;2023-05-23T09:13:30;100477.59;;;31.03;nan
2563;BME280;1291;51.420;6.970;2023-05-23T09:16:07;100480.97;;;31.24;nan
2563;BME280;1291;51.420;6.970;2023-05-23T09:18:36;100481.88;;;29.77;nan
2563;BME280;1291;51.420;6.970;2023-05-23T09:21:01;100486.31;;;30.71;nan
2563;BME280;1291;51.420;6.970;2023-05-23T09:23:37;100483.72;;;30.70;nan
2563;BME280;1291;51.420;6.970;2023-05-23T09:26:08;100485.72;;;31.19;nan
2563;BME280;1291;51.420;6.970;2023-05-23T09:28:34;100495.28;;;29.56;nan
2563;BME280;1291;51.420;6.970;2023-05-23T09:31:04;100494.28;;;30.73;nan
2563;BME280;1291;51.420;6.970;2023-05-23T09:33:42;100488.56;;;32.63;nan
2563;BME280;1291;51.420;6.970;2023-05-23T09:36:09;100501.72;;;29.92;nan
2563;BME280;1291;51.420;6.970;2023-05-23T09:38:39;100496.75;;;31.47;nan
2563;BME280;1291;51.420;6.970;2023-05-23T09:41:11;100486.16;;;31.62;nan
2563;BME280;1291;51.420;6.970;2023-05-23T09:43:52;100502.38;;;31.08;nan
2563;BME280;1291;51.420;6.970;2023-05-23T09:46:19;100496.63;;;30.98;nan
2563;BME280;1291;51.420;6.970;2023-05-23T09:48:49;100501.59;;;30.69;nan
2563;BME280;1291;51.420;6.970;2023-05-23T09:51:18;100497.78;;;31.27;nan
2563;BME280;1291;51.420;6.970;2023-05-23T09:53:45;100498.44;;;30.61;nan
2563;BME280;1291;51.420;6.970;2023-05-23T09:56:11;100500.47;;;31.45;nan
2563;BME280;1291;51.420;6.970;2023-05-23T09:58:37;100508.25;;;29.45;nan
2563;BME280;1291;51.420;6.970;2023-05-23T10:01:08;100510.31;;;31.62;nan
2563;BME280;1291;51.420;6.970;2023-05-23T10:03:54;100505.25;;;29.92;nan
2563;BME280;1291;51.420;6.970;2023-05-23T10:06:33;100504.50;;;31.19;nan
2563;BME280;1291;51.420;6.970;2023-05-23T10:09:04;100526.28;;;30.40;nan
2563;BME280;1291;51.420;6.970;2023-05-23T10:14:04;100525.66;;;29.95;nan
2563;BME280;1291;51.420;6.970;2023-05-23T10:16:42;100521.13;;;30.90;nan
2563;BME280;1291;51.420;6.970;2023-05-23T10:19:19;100520.69;;;29.67;nan
2563;BME280;1291;51.420;6.970;2023-05-23T10:21:50;100515.63;;;31.79;nan
2563;BME280;1291;51.420;6.970;2023-05-23T10:24:17;100520.31;;;32.09;nan
2563;BME280;1291;51.420;6.970;2023-05-23T10:26:43;100517.03;;;31.86;nan
2563;BME280;1291;51.420;6.970;2023-05-23T10:29:09;100520.69;;;32.35;nan
2563;BME280;1291;51.420;6.970;2023-05-23T10:31:34;100520.56;;;31.71;nan
2563;BME280;1291;51.420;6.970;2023-05-23T10:34:14;100521.69;;;31.32;nan
2563;BME280;1291;51.420;6.970;2023-05-23T10:39:56;100523.47;;;32.00;nan
2563;BME280;1291;51.420;6.970;2023-05-23T10:43:02;100522.22;;;33.01;nan
2563;BME280;1291;51.420;6.970;2023-05-23T10:45:39;100517.72;;;32.23;nan
2563;BME280;1291;51.420;6.970;2023-05-23T10:51:05;100521.47;;;31.87;nan
2563;BME280;1291;51.420;6.970;2023-05-23T10:53:38;100529.59;;;31.18;nan
2563;BME280;1291;51.420;6.970;2023-05-23T10:56:08;100528.13;;;32.29;nan
2563;BME280;1291;51.420;6.970;2023-05-23T10:58:35;100524.88;;;32.86;nan
2563;BME280;1291;51.420;6.970;2023-05-23T11:01:05;100532.72;;;30.91;nan
2563;BME280;1291;51.420;6.970;2023-05-23T11:06:00;100534.19;;;32.17;nan
2563;BME280;1291;51.420;6.970;2023-05-23T11:08:26;100536.47;;;33.19;nan
2563;BME280;1291;51.420;6.970;2023-05-23T11:10:55;100534.59;;;32.89;nan
2563;BME280;1291;51.420;6.970;2023-05-23T11:13:21;100542.16;;;34.16;nan
2563;BME280;1291;51.420;6.970;2023-05-23T11:15:47;100543.59;;;33.34;nan
2563;BME280;1291;51.420;6.970;2023-05-23T11:18:25;100552.94;;;32.66;nan
2563;BME280;1291;51.420;6.970;2023-05-23T11:20:52;100544.09;;;30.96;nan
2563;BME280;1291;51.420;6.970;2023-05-23T11:23:19;100538.34;;;32.55;nan
2563;BME280;1291;51.420;6.970;2023-05-23T11:25:51;100538.50;;;31.36;nan
2563;BME280;1291;51.420;6.970;2023-05-23T11:28:18;100545.63;;;32.53;nan
2563;BME280;1291;51.420;6.970;2023-05-23T11:30:47;100546.16;;;32.27;nan
2563;BME280;1291;51.420;6.970;2023-05-23T11:33:14;100538.94;;;31.79;nan
2563;BME280;1291;51.420;6.970;2023-05-23T11:35:44;100547.78;;;33.09;nan
2563;BME280;1291;51.420;6.970;2023-05-23T11:38:10;100547.75;;;31.47;nan
2563;BME280;1291;51.420;6.970;2023-05-23T11:40:37;100555.81;;;31.81;nan
2563;BME280;1291;51.420;6.970;2023-05-23T11:43:05;100554.28;;;32.26;nan
2563;BME280;1291;51.420;6.970;2023-05-23T11:45:31;100548.88;;;33.95;nan
2563;BME280;1291;51.420;6.970;2023-05-23T11:47:57;100548.13;;;33.78;nan
2563;BME280;1291;51.420;6.970;2023-05-23T11:50:22;100546.47;;;32.85;nan
2563;BME280;1291;51.420;6.970;2023-05-23T11:52:54;100547.13;;;33.04;nan
2563;BME280;1291;51.420;6.970;2023-05-23T11:55:20;100552.25;;;31.29;nan
2563;BME280;1291;51.420;6.970;2023-05-23T11:57:46;100549.19;;;32.53;nan
2563;BME280;1291;51.420;6.970;2023-05-23T12:00:13;100556.06;;;32.75;nan
2563;BME280;1291;51.420;6.970;2023-05-23T12:02:43;100562.25;;;31.43;nan
2563;BME280;1291;51.420;6.970;2023-05-23T12:05:10;100555.66;;;31.50;nan
2563;BME280;1291;51.420;6.970;2023-05-23T12:07:41;100564.63;;;31.32;nan
2563;BME280;1291;51.420;6.970;2023-05-23T12:10:09;100558.03;;;32.55;nan
2563;BME280;1291;51.420;6.970;2023-05-23T12:12:35;100564.16;;;31.59;nan
2563;BME280;1291;51.420;6.970;2023-05-23T12:15:00;100552.94;;;35.12;nan
2563;BME280;1291;51.420;6.970;2023-05-23T12:17:26;100561.63;;;32.06;nan
2563;BME280;1291;51.420;6.970;2023-05-23T12:19:51;100554.47;;;34.20;nan
2563;BME280;1291;51.420;6.970;2023-05-23T12:22:27;100562.16;;;33.83;nan
2563;BME280;1291;51.420;6.970;2023-05-23T12:24:53;100551.06;;;35.27;nan
2563;BME280;1291;51.420;6.970;2023-05-23T12:27:29;100550.25;;;33.43;nan
2563;BME280;1291;51.420;6.970;2023-05-23T12:30:13;100562.91;;;34.84;nan
2563;BME280;1291;51.420;6.970;2023-05-23T12:32:41;100557.16;;;34.20;nan
2563;BME280;1291;51.420;6.970;2023-05-23T12:35:11;100550.38;;;34.42;nan
2563;BME280;1291;51.420;6.970;2023-05-23T12:37:41;100553.41;;;33.80;nan
2563;BME280;1291;51.420;6.970;2023-05-23T12:40:12;100552.84;;;34.18;nan
2563;BME280;1291;51.420;6.970;2023-05-23T12:42:55;100547.91;;;34.10;nan
2563;BME280;1291;51.420;6.970;2023-05-23T12:45:34;100551.19;;;34.71;nan
2563;BME280;1291;51.420;6.970;2023-05-23T12:48:01;100552.44;;;33.36;nan
2563;BME280;1291;51.420;6.970;2023-05-23T12:50:30;100552.50;;;33.20;nan
2563;BME280;1291;51.420;6.970;2023-05-23T12:52:56;100557.31;;;34.03;nan
2563;BME280;1291;51.420;6.970;2023-05-23T12:55:21;100550.66;;;35.46;nan
2563;BME280;1291;51.420;6.970;2023-05-23T12:57:49;100551.09;;;33.29;nan
2563;BME280;1291;51.420;6.970;2023-05-23T13:00:15;100555.66;;;33.13;nan
2563;BME280;1291;51.420;6.970;2023-05-23T13:02:41;100555.75;;;30.95;nan
2563;BME280;1291;51.420;6.970;2023-05-23T13:05:07;100549.56;;;34.96;nan
2563;BME280;1291;51.420;6.970;2023-05-23T13:07:33;100549.06;;;33.63;nan
2563;BME280;1291;51.420;6.970;2023-05-23T13:09:58;100549.25;;;34.03;nan
2563;BME280;1291;51.420;6.970;2023-05-23T13:12:24;100559.50;;;32.77;nan
2563;BME280;1291;51.420;6.970;2023-05-23T13:14:49;100551.69;;;32.88;nan
2563;BME280;1291;51.420;6.970;2023-05-23T13:17:15;100550.69;;;32.59;nan
2563;BME280;1291;51.420;6.970;2023-05-23T13:19:40;100546.09;;;34.25;nan
2563;BME280;1291;51.420;6.970;2023-05-23T13:22:07;100548.47;;;32.97;nan
2563;BME280;1291;51.420;6.970;2023-05-23T13:24:35;100550.03;;;33.76;nan
2563;BME280;1291;51.420;6.970;2023-05-23T13:27:02;100550.22;;;33.73;nan
2563;BME280;1291;51.420;6.970;2023-05-23T13:29:27;100562.94;;;33.10;nan
2563;BME280;1291;51.420;6.970;2023-05-23T13:31:53;100548.34;;;33.59;nan
2563;BME280;1291;51.420;6.970;2023-05-23T13:34:18;100549.94;;;33.19;nan
2563;BME280;1291;51.420;6.970;2023-05-23T13:36:44;100547.72;;;33.84;nan
2563;BME280;1291;51.420;6.970;2023-05-23T13:39:09;100550.91;;;34.76;nan
2563;BME280;1291;51.420;6.970;2023-05-23T13:41:34;100557.50;;;33.26;nan
2563;BME280;1291;51.420;6.970;2023-05-23T13:44:00;100558.09;;;34.48;nan
2563;BME280;1291;51.420;6.970;2023-05-23T13:46:25;100556.47;;;35.40;nan